createdAt,value
2022-11-05T00:00:48.362Z,99713.88
2022-11-05T00:03:15.655Z,99719.56
2022-11-05T00:05:45.471Z,99721.47
2022-11-05T00:08:12.825Z,99716.19
2022-11-05T00:10:40.276Z,99716.47
2022-11-05T00:13:09.432Z,99706.97
2022-11-05T00:15:36.995Z,99712.06
2022-11-05T00:18:04.494Z,99724.47
2022-11-05T00:20:31.735Z,99729.44
2022-11-05T00:23:03.076Z,99740.78
2022-11-05T00:25:30.755Z,99737.72
2022-11-05T00:28:01.726Z,99741.06
2022-11-05T00:30:30.078Z,99757.78
2022-11-05T00:33:01.505Z,99753.03
2022-11-05T00:35:28.630Z,99753.78
2022-11-05T00:37:55.923Z,99743.56
2022-11-05T00:40:23.223Z,99738.97
2022-11-05T00:42:55.748Z,99731.50
2022-11-05T00:45:22.971Z,99734.78
2022-11-05T00:47:50.271Z,99735.97
2022-11-05T00:50:19.287Z,99733.59
2022-11-05T00:52:54.711Z,99730.09
2022-11-05T00:55:43.661Z,99722.75
2022-11-05T00:58:22.178Z,99716.41
2022-11-05T01:00:54.978Z,99724.34
2022-11-05T01:03:25.024Z,99716.81
2022-11-05T01:05:57.871Z,99717.91
2022-11-05T01:08:27.917Z,99708.56
2022-11-05T01:10:57.286Z,99705.28
2022-11-05T01:13:30.153Z,99693.66
2022-11-05T01:15:57.827Z,99701.00
2022-11-05T01:18:25.437Z,99713.34
2022-11-05T01:20:52.807Z,99710.38
2022-11-05T01:23:20.716Z,99720.06
2022-11-05T01:25:48.562Z,99732.88
2022-11-05T01:28:16.314Z,99731.47
2022-11-05T01:30:43.721Z,99739.94
2022-11-05T01:33:11.530Z,99742.06
2022-11-05T01:35:39.064Z,99737.94
2022-11-05T01:38:06.676Z,99734.09
2022-11-05T01:40:34.012Z,99729.84
2022-11-05T01:43:01.337Z,99727.25
2022-11-05T01:45:29.065Z,99730.44
2022-11-05T01:47:59.769Z,99726.53
2022-11-05T01:50:33.495Z,99726.25
2022-11-05T01:53:13.205Z,99725.66
2022-11-05T01:55:46.022Z,99718.69
2022-11-05T01:58:19.062Z,99723.66
2022-11-05T02:00:46.872Z,99714.13
2022-11-05T02:03:16.469Z,99705.66
2022-11-05T02:05:45.236Z,99700.88
2022-11-05T02:08:21.510Z,99704.25
2022-11-05T02:10:48.761Z,99696.00
2022-11-05T02:13:15.917Z,99690.84
2022-11-05T02:15:59.360Z,99696.25
2022-11-05T02:19:12.827Z,99684.84
2022-11-05T02:21:57.099Z,99679.69
2022-11-05T02:24:55.534Z,99683.44
2022-11-05T02:27:51.768Z,99692.94
2022-11-05T02:30:29.204Z,99701.94
2022-11-05T02:33:04.836Z,99707.44
2022-11-05T02:35:39.529Z,99693.03
2022-11-05T02:38:15.925Z,99693.69
2022-11-05T02:41:24.061Z,99697.50
2022-11-05T02:44:14.972Z,99696.72
2022-11-05T02:46:54.282Z,99697.09
2022-11-05T02:49:38.086Z,99702.09
2022-11-05T02:52:14.377Z,99690.81
2022-11-05T02:54:57.644Z,99701.28
2022-11-05T02:57:29.213Z,99693.63
2022-11-05T03:00:27.473Z,99695.94
2022-11-05T03:02:57.926Z,99700.41
2022-11-05T03:05:39.213Z,99697.81
2022-11-05T03:08:19.494Z,99686.59
2022-11-05T03:10:56.674Z,99683.56
2022-11-05T03:13:46.861Z,99683.56
2022-11-05T03:16:54.890Z,99681.97
2022-11-05T03:19:47.882Z,99670.00
2022-11-05T03:22:23.194Z,99670.59
2022-11-05T03:24:56.067Z,99676.84
2022-11-05T03:27:29.089Z,99673.84
2022-11-05T03:30:01.903Z,99685.28
2022-11-05T03:32:32.752Z,99687.84
2022-11-05T03:35:12.539Z,99683.34
2022-11-05T03:37:42.709Z,99685.00
2022-11-05T03:40:12.749Z,99674.34
2022-11-05T03:42:44.468Z,99673.34
2022-11-05T03:45:19.080Z,99672.34
2022-11-05T03:47:49.899Z,99668.09
2022-11-05T03:50:28.911Z,99664.03
2022-11-05T03:53:04.887Z,99662.38
2022-11-05T03:55:42.108Z,99662.16
2022-11-05T03:58:11.295Z,99662.69
2022-11-05T04:00:38.895Z,99679.84
2022-11-05T04:03:08.364Z,99665.88
2022-11-05T04:05:35.942Z,99668.72
2022-11-05T04:08:03.281Z,99663.88
2022-11-05T04:10:33.251Z,99655.59
2022-11-05T04:13:00.536Z,99655.13
2022-11-05T04:15:27.964Z,99652.03
2022-11-05T04:17:55.284Z,99649.38
2022-11-05T04:20:22.511Z,99649.78
2022-11-05T04:22:59.217Z,99654.34
2022-11-05T04:25:26.478Z,99653.44
2022-11-05T04:27:58.807Z,99646.19
2022-11-05T04:30:26.657Z,99648.97
2022-11-05T04:33:11.014Z,99656.91
2022-11-05T04:35:44.191Z,99660.78
2022-11-05T04:38:13.727Z,99670.69
2022-11-05T04:40:41.847Z,99667.97
2022-11-05T04:43:15.270Z,99657.50
2022-11-05T04:45:45.781Z,99663.97
2022-11-05T04:48:13.160Z,99671.94
2022-11-05T04:50:40.388Z,99671.28
2022-11-05T04:53:07.895Z,99693.94
2022-11-05T04:55:35.377Z,99687.19
2022-11-05T04:58:02.627Z,99699.94
2022-11-05T05:00:32.655Z,99704.16
2022-11-05T05:03:14.458Z,99715.28
2022-11-05T05:06:03.887Z,99713.44
2022-11-05T05:08:31.518Z,99705.72
2022-11-05T05:11:06.529Z,99704.81
2022-11-05T05:13:34.394Z,99709.41
2022-11-05T05:16:15.692Z,99710.53
2022-11-05T05:18:46.245Z,99721.00
2022-11-05T05:21:16.105Z,99728.44
2022-11-05T05:23:44.322Z,99739.38
2022-11-05T05:26:12.029Z,99749.31
2022-11-05T05:28:39.843Z,99747.94
2022-11-05T05:31:07.086Z,99754.69
2022-11-05T05:33:34.543Z,99763.84
2022-11-05T05:36:10.115Z,99763.03
2022-11-05T05:38:38.913Z,99761.56
2022-11-05T05:41:06.170Z,99773.53
2022-11-05T05:43:33.845Z,99779.22
2022-11-05T05:46:06.391Z,99786.47
2022-11-05T05:48:34.516Z,99794.72
2022-11-05T05:51:07.478Z,99795.41
2022-11-05T05:53:35.645Z,99800.38
2022-11-05T05:56:03.937Z,99808.34
2022-11-05T05:58:37.159Z,99800.31
2022-11-05T06:01:15.582Z,99814.09
2022-11-05T06:03:49.180Z,99813.34
2022-11-05T06:06:18.018Z,99828.44
2022-11-05T06:08:45.439Z,99831.63
2022-11-05T06:11:15.285Z,99833.81
2022-11-05T06:13:42.841Z,99838.19
2022-11-05T06:16:11.186Z,99838.09
2022-11-05T06:18:41.027Z,99842.06
2022-11-05T06:21:11.378Z,99841.38
2022-11-05T06:23:40.384Z,99839.78
2022-11-05T06:26:10.113Z,99844.34
2022-11-05T06:28:37.620Z,99846.16
2022-11-05T06:31:05.728Z,99843.47
2022-11-05T06:33:33.011Z,99842.16
2022-11-05T06:36:02.291Z,99836.72
2022-11-05T06:38:34.315Z,99834.25
2022-11-05T06:41:05.810Z,99833.66
2022-11-05T06:43:36.740Z,99838.53
2022-11-05T06:46:04.234Z,99837.81
2022-11-05T06:48:31.492Z,99841.41
2022-11-05T06:50:58.721Z,99840.78
2022-11-05T06:53:26.079Z,99836.81
2022-11-05T06:55:53.749Z,99830.84
2022-11-05T06:58:23.588Z,99838.19
2022-11-05T07:00:53.728Z,99831.75
2022-11-05T07:03:20.976Z,99822.91
2022-11-05T07:05:52.528Z,99812.53
2022-11-05T07:08:25.628Z,99810.25
2022-11-05T07:10:52.882Z,99828.19
2022-11-05T07:13:23.761Z,99815.25
2022-11-05T07:15:54.072Z,99810.09
2022-11-05T07:18:33.271Z,99803.53
2022-11-05T07:21:06.086Z,99802.44
2022-11-05T07:23:39.067Z,99791.47
2022-11-05T07:26:07.179Z,99788.59
2022-11-05T07:28:40.749Z,99784.78
2022-11-05T07:31:10.890Z,99779.59
2022-11-05T07:33:38.161Z,99773.59
2022-11-05T07:36:08.598Z,99770.00
2022-11-05T07:38:38.638Z,99753.09
2022-11-05T07:41:08.712Z,99742.72
2022-11-05T07:43:35.971Z,99747.16
2022-11-05T07:46:11.176Z,99744.94
2022-11-05T07:48:41.392Z,99736.44
2022-11-05T07:51:08.606Z,99742.66
2022-11-05T07:53:38.707Z,99750.84
2022-11-05T07:56:10.988Z,99741.53
2022-11-05T07:58:41.312Z,99738.84
2022-11-05T08:01:09.105Z,99741.69
2022-11-05T08:03:42.397Z,99748.13
2022-11-05T08:06:12.626Z,99744.78
2022-11-05T08:08:43.149Z,99753.06
2022-11-05T08:11:16.297Z,99763.13
2022-11-05T08:13:49.625Z,99757.09
2022-11-05T08:16:20.207Z,99744.09
2022-11-05T08:18:57.481Z,99731.94
2022-11-05T08:21:24.782Z,99733.00
2022-11-05T08:23:58.050Z,99737.63
2022-11-05T08:26:25.297Z,99732.59
2022-11-05T08:28:52.559Z,99731.81
2022-11-05T08:31:22.506Z,99725.94
2022-11-05T08:33:59.694Z,99722.31
2022-11-05T08:36:32.307Z,99730.06
2022-11-05T08:38:59.560Z,99739.81
2022-11-05T08:41:30.131Z,99733.44
2022-11-05T08:43:57.345Z,99728.69
2022-11-05T08:46:27.896Z,99743.59
2022-11-05T08:48:55.260Z,99742.50
2022-11-05T08:51:25.370Z,99739.78
2022-11-05T08:53:52.669Z,99744.06
2022-11-05T08:56:23.358Z,99756.09
2022-11-05T08:58:51.374Z,99759.78
2022-11-05T09:01:19.841Z,99756.84
2022-11-05T09:03:54.633Z,99755.44
2022-11-05T09:06:26.375Z,99751.06
2022-11-05T09:09:00.181Z,99752.03
2022-11-05T09:12:05.322Z,99747.31
2022-11-05T09:14:23.419Z,99749.91
2022-11-05T09:16:50.721Z,99752.81
2022-11-05T09:19:26.481Z,99750.22
2022-11-05T09:21:59.531Z,99750.75
2022-11-05T09:24:30.659Z,99762.72
2022-11-05T09:27:00.676Z,99751.63
2022-11-05T09:29:31.156Z,99768.81
2022-11-05T09:32:01.259Z,99770.28
2022-11-05T09:34:31.865Z,99771.69
2022-11-05T09:37:02.324Z,99769.56
2022-11-05T09:39:29.550Z,99773.56
2022-11-05T09:42:06.218Z,99774.94
2022-11-05T09:44:49.102Z,99773.50
2022-11-05T09:47:41.520Z,99770.06
2022-11-05T09:50:22.449Z,99761.28
2022-11-05T09:52:53.389Z,99757.31
2022-11-05T09:55:29.101Z,99759.47
2022-11-05T09:58:00.321Z,99755.13
2022-11-05T10:00:31.367Z,99760.13
2022-11-05T10:03:04.579Z,99750.66
2022-11-05T10:05:40.910Z,99757.22
2022-11-05T10:08:18.187Z,99754.44
2022-11-05T10:10:49.791Z,99750.00
2022-11-05T10:13:32.162Z,99756.38
2022-11-05T10:16:15.101Z,99747.78
2022-11-05T10:18:58.459Z,99746.50
2022-11-05T10:21:51.831Z,99750.84
2022-11-05T10:24:23.248Z,99742.78
2022-11-05T10:26:58.882Z,99743.72
2022-11-05T10:29:31.532Z,99744.34
2022-11-05T10:32:04.557Z,99739.31
2022-11-05T10:34:34.390Z,99740.72
2022-11-05T10:37:05.605Z,99745.25
2022-11-05T10:39:37.590Z,99749.44
2022-11-05T10:42:42.123Z,99748.53
2022-11-05T10:45:29.763Z,99744.94
2022-11-05T10:48:44.560Z,99738.78
2022-11-05T10:51:18.929Z,99741.75
2022-11-05T10:54:02.405Z,99735.22
2022-11-05T10:56:41.098Z,99736.75
2022-11-05T10:59:29.751Z,99731.56
2022-11-05T11:02:21.932Z,99729.97
2022-11-05T11:04:56.518Z,99731.09
2022-11-05T11:07:26.357Z,99729.00
2022-11-05T11:09:56.335Z,99724.13
2022-11-05T11:12:40.671Z,99725.81
2022-11-05T11:15:24.532Z,99731.78
2022-11-05T11:17:51.831Z,99726.25
2022-11-05T11:20:29.171Z,99726.72
2022-11-05T11:23:04.658Z,99725.59
2022-11-05T11:25:58.078Z,99727.19
2022-11-05T11:28:31.406Z,99732.72
2022-11-05T11:31:24.526Z,99732.03
2022-11-05T11:34:00.229Z,99721.84
2022-11-05T11:36:45.600Z,99721.91
2022-11-05T11:39:18.660Z,99715.53
2022-11-05T11:41:52.519Z,99718.66
2022-11-05T11:44:26.829Z,99715.06
2022-11-05T11:47:01.350Z,99718.81
2022-11-05T11:49:48.703Z,99717.06
2022-11-05T11:52:32.101Z,99709.75
2022-11-05T11:55:11.503Z,99710.38
2022-11-05T11:58:05.303Z,99711.63
2022-11-05T12:00:43.379Z,99718.31
2022-11-05T12:03:36.895Z,99727.47
2022-11-05T12:06:42.317Z,99729.59
2022-11-05T12:09:47.012Z,99716.16
2022-11-05T12:12:16.774Z,99719.22
2022-11-05T12:14:53.295Z,99718.13
2022-11-05T12:17:46.779Z,99715.22
2022-11-05T12:20:36.128Z,99712.81
2022-11-05T12:23:21.506Z,99706.81
2022-11-05T12:26:03.712Z,99705.03
2022-11-05T12:29:24.866Z,99697.63
2022-11-05T12:31:55.645Z,99692.69
2022-11-05T12:34:37.185Z,99692.69
2022-11-05T12:37:20.120Z,99689.72
2022-11-05T12:40:00.045Z,99699.41
2022-11-05T12:42:53.607Z,99694.00
2022-11-05T12:45:45.134Z,99680.88
2022-11-05T12:48:36.759Z,99693.53
2022-11-05T12:51:32.355Z,99697.50
2022-11-05T12:54:14.987Z,99707.28
2022-11-05T12:56:48.951Z,99715.19
2022-11-05T12:59:25.577Z,99702.09
2022-11-05T13:02:34.396Z,99701.63
2022-11-05T13:05:18.471Z,99691.06
2022-11-05T13:08:11.857Z,99693.72
2022-11-05T13:11:06.615Z,99690.75
2022-11-05T13:13:40.212Z,99695.84
2022-11-05T13:16:22.578Z,99705.63
2022-11-05T13:18:54.289Z,99721.31
2022-11-05T13:21:24.492Z,99710.16
2022-11-05T13:24:11.021Z,99707.84
2022-11-05T13:26:46.944Z,99708.09
2022-11-05T13:29:20.343Z,99706.41
2022-11-05T13:31:56.970Z,99704.34
2022-11-05T13:34:24.607Z,99701.59
2022-11-05T13:37:05.882Z,99697.28
2022-11-05T13:39:41.400Z,99694.66
2022-11-05T13:42:38.943Z,99692.47
2022-11-05T13:45:24.624Z,99704.56
2022-11-05T13:48:10.426Z,99715.13
2022-11-05T13:51:02.593Z,99720.84
2022-11-05T13:53:51.954Z,99719.63
2022-11-05T13:56:28.416Z,99728.31
2022-11-05T13:59:14.123Z,99726.75
2022-11-05T14:01:55.854Z,99729.13
2022-11-05T14:04:28.919Z,99732.03
2022-11-05T14:07:11.109Z,99737.50
2022-11-05T14:09:40.294Z,99740.56
2022-11-05T14:12:19.328Z,99745.00
2022-11-05T14:14:55.868Z,99753.44
2022-11-05T14:17:31.550Z,99740.59
2022-11-05T14:20:05.001Z,99741.25
2022-11-05T14:22:32.410Z,99729.97
2022-11-05T14:25:01.130Z,99735.09
2022-11-05T14:27:31.383Z,99748.94
2022-11-05T14:29:58.647Z,99744.84
2022-11-05T14:32:43.905Z,99746.16
2022-11-05T14:35:17.637Z,99744.75
2022-11-05T14:37:55.076Z,99743.47
2022-11-05T14:40:22.463Z,99746.53
2022-11-05T14:42:57.237Z,99750.19
2022-11-05T14:45:27.802Z,99746.25
2022-11-05T14:48:00.862Z,99741.94
2022-11-05T14:50:40.545Z,99740.56
2022-11-05T14:53:29.506Z,99745.28
2022-11-05T14:56:09.510Z,99748.19
2022-11-05T14:58:41.817Z,99744.38
2022-11-05T15:01:18.576Z,99747.25
2022-11-05T15:04:16.323Z,99748.53
2022-11-05T15:07:01.934Z,99753.28
2022-11-05T15:09:38.348Z,99747.25
2022-11-05T15:12:19.894Z,99745.53
2022-11-05T15:15:10.550Z,99752.50
2022-11-05T15:17:46.670Z,99754.75
2022-11-05T15:20:16.576Z,99759.19
2022-11-05T15:22:48.027Z,99763.78
2022-11-05T15:25:28.596Z,99765.25
2022-11-05T15:28:13.931Z,99761.44
2022-11-05T15:30:56.607Z,99768.91
2022-11-05T15:33:26.942Z,99770.97
2022-11-05T15:36:14.727Z,99776.69
2022-11-05T15:38:56.682Z,99780.81
2022-11-05T15:41:33.068Z,99766.06
2022-11-05T15:44:00.933Z,99778.91
2022-11-05T15:46:29.154Z,99780.53
2022-11-05T15:49:09.465Z,99785.28
2022-11-05T15:51:36.901Z,99781.47
2022-11-05T15:56:57.224Z,99786.09
2022-11-05T15:59:26.838Z,99783.09
2022-11-05T16:02:15.846Z,99790.88
2022-11-05T16:04:47.226Z,99794.69
2022-11-05T16:07:15.258Z,99796.41
2022-11-05T16:10:06.067Z,99804.97
2022-11-05T16:12:36.813Z,99821.63
2022-11-05T16:15:29.607Z,99816.75
2022-11-05T16:18:00.448Z,99812.44
2022-11-05T16:20:33.480Z,99826.25
2022-11-05T16:23:15.155Z,99821.16
2022-11-05T16:25:43.477Z,99826.41
2022-11-05T16:28:24.390Z,99821.16
2022-11-05T16:31:11.984Z,99824.47
2022-11-05T16:33:45.262Z,99822.91
2022-11-05T16:36:12.834Z,99825.44
2022-11-05T16:38:40.092Z,99816.56
2022-11-05T16:41:17.702Z,99814.31
2022-11-05T16:44:00.536Z,99815.91
2022-11-05T16:46:29.988Z,99812.72
2022-11-05T16:49:02.887Z,99820.19
2022-11-05T16:51:30.081Z,99823.66
2022-11-05T16:53:57.346Z,99822.09
2022-11-05T16:56:24.711Z,99828.75
2022-11-05T16:58:51.976Z,99823.34
2022-11-05T17:01:22.564Z,99821.28
2022-11-05T17:03:52.231Z,99815.00
2022-11-05T17:06:21.128Z,99824.16
2022-11-05T17:08:49.198Z,99819.19
2022-11-05T17:11:18.996Z,99816.31
2022-11-05T17:13:47.217Z,99820.38
2022-11-05T17:16:17.680Z,99826.78
2022-11-05T17:18:45.158Z,99826.09
2022-11-05T17:21:12.713Z,99834.06
2022-11-05T17:23:40.031Z,99832.84
2022-11-05T17:26:11.997Z,99837.16
2022-11-05T17:28:39.701Z,99839.09
2022-11-05T17:31:11.407Z,99837.53
2022-11-05T17:33:38.835Z,99835.28
2022-11-05T17:36:07.852Z,99832.72
2022-11-05T17:38:35.253Z,99832.88
2022-11-05T17:41:10.548Z,99835.25
2022-11-05T17:43:41.538Z,99829.66
2022-11-05T17:46:11.573Z,99831.91
2022-11-05T17:48:39.337Z,99833.59
2022-11-05T17:51:11.735Z,99832.34
2022-11-05T17:53:39.930Z,99835.94
2022-11-05T17:56:20.125Z,99835.78
2022-11-05T17:58:51.929Z,99837.19
2022-11-05T18:01:31.143Z,99839.88
2022-11-05T18:04:01.313Z,99835.94
2022-11-05T18:06:31.241Z,99836.41
2022-11-05T18:08:58.540Z,99843.69
2022-11-05T18:11:25.760Z,99835.75
2022-11-05T18:13:53.030Z,99839.25
2022-11-05T18:16:20.346Z,99845.59
2022-11-05T18:18:47.594Z,99841.53
2022-11-05T18:21:15.237Z,99841.03
2022-11-05T18:23:42.468Z,99845.59
2022-11-05T18:26:14.214Z,99848.00
2022-11-05T18:28:42.329Z,99841.97
2022-11-05T18:31:28.125Z,99842.69
2022-11-05T18:33:57.874Z,99841.47
2022-11-05T18:36:27.544Z,99838.00
2022-11-05T18:39:01.082Z,99835.94
2022-11-05T18:41:30.995Z,99842.44
2022-11-05T18:43:59.749Z,99852.09
2022-11-05T18:46:55.890Z,99851.00
2022-11-05T18:49:15.796Z,99870.47
2022-11-05T18:51:43.015Z,99853.06
2022-11-05T18:54:10.215Z,99857.50
2022-11-05T18:56:41.041Z,99857.56
2022-11-05T18:59:35.043Z,99857.50
2022-11-05T19:01:55.614Z,99857.94
2022-11-05T19:04:22.877Z,99863.03
2022-11-05T19:06:50.647Z,99860.97
2022-11-05T19:09:21.420Z,99858.28
2022-11-05T19:11:50.363Z,99864.66
2022-11-05T19:14:18.022Z,99859.25
2022-11-05T19:16:45.265Z,99866.88
2022-11-05T19:19:12.744Z,99854.94
2022-11-05T19:21:40.070Z,99866.06
2022-11-05T19:24:07.533Z,99862.59
2022-11-05T19:26:34.801Z,99873.84
2022-11-05T19:29:03.268Z,99866.63
2022-11-05T19:31:33.796Z,99863.13
2022-11-05T19:34:01.167Z,99882.00
2022-11-05T19:36:29.098Z,99863.13
2022-11-05T19:39:00.524Z,99868.81
2022-11-05T19:41:27.958Z,99859.13
2022-11-05T19:43:55.722Z,99872.09
2022-11-05T19:46:24.560Z,99873.59
2022-11-05T19:48:55.159Z,99869.91
2022-11-05T19:51:25.955Z,99872.25
2022-11-05T19:53:54.115Z,99888.28
2022-11-05T19:56:31.021Z,99874.25
2022-11-05T19:59:01.679Z,99870.75
2022-11-05T20:01:32.851Z,99882.63
2022-11-05T20:04:06.795Z,99885.09
2022-11-05T20:06:37.111Z,99884.66
2022-11-05T20:09:21.107Z,99892.81
2022-11-05T20:11:55.961Z,99882.19
2022-11-05T20:14:24.891Z,99897.34
2022-11-05T20:17:01.786Z,99896.47
2022-11-05T20:19:32.606Z,99901.88
2022-11-05T20:22:02.558Z,99884.09
2022-11-05T20:24:32.556Z,99887.88
2022-11-05T20:27:02.650Z,99895.88
2022-11-05T20:29:35.892Z,99887.69
2022-11-05T20:32:04.443Z,99895.00
2022-11-05T20:34:33.623Z,99894.50
2022-11-05T20:37:04.716Z,99899.31
2022-11-05T20:39:32.041Z,99894.34
2022-11-05T20:41:59.419Z,99901.03
2022-11-05T20:44:36.555Z,99896.13
2022-11-05T20:47:06.617Z,99890.16
2022-11-05T20:49:33.823Z,99892.09
2022-11-05T20:52:01.169Z,99890.03
2022-11-05T20:54:32.390Z,99893.06
2022-11-05T20:57:02.125Z,99892.78
2022-11-05T20:59:29.375Z,99898.72
2022-11-05T21:01:56.631Z,99905.41
2022-11-05T21:04:26.717Z,99902.94
2022-11-05T21:06:54.358Z,99903.97
2022-11-05T21:09:21.416Z,99904.28
2022-11-05T21:11:49.005Z,99913.09
2022-11-05T21:14:16.342Z,99924.34
2022-11-05T21:16:43.966Z,99910.81
2022-11-05T21:19:11.220Z,99908.81
2022-11-05T21:21:41.105Z,99903.38
2022-11-05T21:24:10.789Z,99904.88
2022-11-05T21:26:45.204Z,99903.22
2022-11-05T21:29:15.710Z,99895.72
2022-11-05T21:31:50.435Z,99908.50
2022-11-05T21:34:21.758Z,99899.97
2022-11-05T21:36:48.874Z,99894.31
2022-11-05T21:39:16.058Z,99891.94
2022-11-05T21:41:43.561Z,99900.00
2022-11-05T21:44:10.815Z,99898.75
2022-11-05T21:46:41.465Z,99901.03
2022-11-05T21:49:08.682Z,99904.72
2022-11-05T21:51:38.006Z,99904.84
2022-11-05T21:54:07.810Z,99908.03
2022-11-05T21:56:35.253Z,99901.97
2022-11-05T21:59:02.405Z,99901.78
2022-11-05T22:01:29.976Z,99914.13
2022-11-05T22:04:02.685Z,99901.22
2022-11-05T22:06:33.170Z,99901.72
2022-11-05T22:09:02.410Z,99902.94
2022-11-05T22:11:44.122Z,99902.16
2022-11-05T22:14:14.066Z,99903.25
2022-11-05T22:16:41.588Z,99908.75
2022-11-05T22:19:08.716Z,99915.53
2022-11-05T22:21:47.567Z,99909.16
2022-11-05T22:24:22.583Z,99917.81
2022-11-05T22:26:50.135Z,99919.00
2022-11-05T22:29:20.080Z,99911.75
2022-11-05T22:31:47.290Z,99911.56
2022-11-05T22:34:17.016Z,99904.47
2022-11-05T22:36:47.687Z,99911.25
2022-11-05T22:39:15.091Z,99909.06
2022-11-05T22:41:44.838Z,99915.94
2022-11-05T22:44:12.331Z,99921.13
2022-11-05T22:46:40.563Z,99916.53
2022-11-05T22:49:07.763Z,99915.84
2022-11-05T22:51:39.823Z,99898.59
2022-11-05T22:54:10.462Z,99909.41
2022-11-05T22:56:42.243Z,99907.59
2022-11-05T22:59:13.142Z,99903.78
2022-11-05T23:01:41.629Z,99901.59
2022-11-05T23:04:09.094Z,99910.94
2022-11-05T23:06:36.239Z,99903.66
2022-11-05T23:09:06.597Z,99904.47
2022-11-05T23:11:33.749Z,99889.84
2022-11-05T23:14:04.908Z,99894.84
2022-11-05T23:16:32.413Z,99891.56
2022-11-05T23:18:59.493Z,99893.16
2022-11-05T23:21:35.701Z,99890.09
2022-11-05T23:24:02.996Z,99893.88
2022-11-05T23:26:33.807Z,99892.28
2022-11-05T23:29:01.270Z,99901.94
2022-11-05T23:31:32.438Z,99906.81
2022-11-05T23:33:59.530Z,99915.19
2022-11-05T23:36:27.198Z,99911.72
2022-11-05T23:38:54.314Z,99915.00
2022-11-05T23:41:21.362Z,99909.22
2022-11-05T23:43:51.786Z,99911.44
2022-11-05T23:46:18.980Z,99923.56
2022-11-05T23:48:46.052Z,99926.66
2022-11-05T23:51:13.208Z,99917.78
2022-11-05T23:53:41.236Z,99911.81
2022-11-05T23:56:14.065Z,99931.63
2022-11-05T23:58:42.071Z,99924.16
